Time,TemperatureF,DewpointF,PressureIn,WindDirection,WindDirectionDegrees,WindSpeedMPH,WindSpeedGustMPH,Humidity,HourlyPrecipIn,Conditions,Clouds,dailyrainin,SoftwareType,DateUTC
2013-01-28 00:00:00,31.3,26.4,30.54,North,-999,0.0,0.0,82,0.00,,,-99.99,WeatherLink 5.4,2013-01-28 05:00:00,
2013-01-28 00:30:00,31.0,26.7,30.54,North,-999,0.0,0.0,84,0.00,,,-99.99,WeatherLink 5.4,2013-01-28 05:30:00,
2013-01-28 01:00:00,30.9,26.3,30.54,North,-999,0.0,0.0,83,0.00,,,-99.99,WeatherLink 5.4,2013-01-28 06:00:00,
2013-01-28 01:30:00,31.2,26.6,30.53,North,-999,0.0,0.0,83,0.00,,,-99.99,WeatherLink 5.4,2013-01-28 06:30:00,
2013-01-28 02:00:00,31.8,26.9,30.52,SE,135,0.0,1.0,82,0.00,,,-99.99,WeatherLink 5.4,2013-01-28 07:00:00,
2013-01-28 02:30:00,32.1,27.2,30.52,North,-999,0.0,0.0,82,0.00,,,-99.99,WeatherLink 5.4,2013-01-28 07:30:00,
2013-01-28 03:00:00,32.2,27.9,30.52,North,-999,0.0,0.0,84,0.00,,,-99.99,WeatherLink 5.4,2013-01-28 08:00:00,
2013-01-28 03:30:00,32.4,28.7,30.52,North,-999,0.0,0.0,86,0.00,,,-99.99,WeatherLink 5.4,2013-01-28 08:30:00,
2013-01-28 04:00:00,32.5,29.3,30.52,North,-999,0.0,0.0,88,0.00,,,-99.99,WeatherLink 5.4,2013-01-28 09:00:00,
2013-01-28 04:30:00,32.7,29.8,30.50,North,-999,0.0,0.0,89,0.00,,,-99.99,WeatherLink 5.4,2013-01-28 09:30:00,
2013-01-28 05:00:00,32.8,29.6,30.50,SE,135,0.0,1.0,88,0.00,,,-99.99,WeatherLink 5.4,2013-01-28 10:00:00,
2013-01-28 05:30:00,33.1,30.2,30.51,SSE,157,0.0,2.0,89,0.01,,,-99.99,WeatherLink 5.4,2013-01-28 10:30:00,
2013-01-28 06:00:00,33.1,30.5,30.50,North,-999,0.0,0.0,90,0.02,,,-99.99,WeatherLink 5.4,2013-01-28 11:00:00,
2013-01-28 06:30:00,33.1,30.8,30.49,North,-999,0.0,0.0,91,0.01,,,-99.99,WeatherLink 5.4,2013-01-28 11:30:00,
2013-01-28 07:00:00,33.2,30.9,30.49,North,-999,0.0,0.0,91,0.00,,,-99.99,WeatherLink 5.4,2013-01-28 12:00:00,
2013-01-28 07:30:00,33.4,31.3,30.49,North,-999,0.0,0.0,92,0.00,,,-99.99,WeatherLink 5.4,2013-01-28 12:30:00,
2013-01-28 08:00:00,33.4,31.3,30.50,North,-999,0.0,0.0,92,0.00,,,-99.99,WeatherLink 5.4,2013-01-28 13:00:00,
2013-01-28 08:30:00,33.7,31.6,30.50,North,-999,0.0,0.0,92,0.00,,,-99.99,WeatherLink 5.4,2013-01-28 13:30:00,
2013-01-28 09:00:00,34.3,32.2,30.49,South,180,0.0,1.0,92,0.00,,,-99.99,WeatherLink 5.4,2013-01-28 14:00:00,
2013-01-28 09:30:00,34.7,32.3,30.50,South,180,0.0,2.0,91,0.00,,,-99.99,WeatherLink 5.4,2013-01-28 14:30:00,
2013-01-28 10:00:00,36.0,32.8,30.48,WSW,247,0.0,5.0,88,0.00,,,-99.99,WeatherLink 5.4,2013-01-28 15:00:00,
2013-01-28 10:30:00,39.3,33.3,30.47,SSE,157,0.0,6.0,79,0.01,,,-99.99,WeatherLink 5.4,2013-01-28 15:30:00,
2013-01-28 11:00:00,40.6,33.6,30.45,SSW,202,0.0,2.0,76,0.01,,,-99.99,WeatherLink 5.4,2013-01-28 16:00:00,
2013-01-28 11:30:00,42.2,33.1,30.45,SSW,202,0.0,3.0,70,0.00,,,-99.99,WeatherLink 5.4,2013-01-28 16:30:00,
2013-01-28 12:00:00,45.4,34.7,30.43,West,270,0.0,5.0,66,0.00,,,-99.99,WeatherLink 5.4,2013-01-28 17:00:00,
2013-01-28 12:30:00,47.1,35.5,30.40,South,180,0.0,5.0,64,0.01,,,-99.99,WeatherLink 5.4,2013-01-28 17:30:00,
2013-01-28 13:00:00,48.6,36.2,30.37,SW,225,1.0,7.0,62,0.01,,,-99.99,WeatherLink 5.4,2013-01-28 18:00:00,
2013-01-28 13:30:00,50.1,36.3,30.35,SSW,202,1.0,11.0,59,0.00,,,-99.99,WeatherLink 5.4,2013-01-28 18:30:00,
2013-01-28 14:00:00,50.4,36.6,30.34,SSW,202,0.0,3.0,59,0.00,,,-99.99,WeatherLink 5.4,2013-01-28 19:00:00,
2013-01-28 14:30:00,49.9,36.6,30.33,SW,225,0.0,5.0,60,0.00,,,-99.99,WeatherLink 5.4,2013-01-28 19:30:00,
2013-01-28 15:00:00,50.1,36.7,30.32,SSW,202,0.0,3.0,60,0.00,,,-99.99,WeatherLink 5.4,2013-01-28 20:00:00,
2013-01-28 15:30:00,50.2,37.3,30.30,West,270,0.0,1.0,61,0.00,,,-99.99,WeatherLink 5.4,2013-01-28 20:30:00,
2013-01-28 16:00:00,50.2,36.8,30.29,SSW,202,0.0,6.0,60,0.00,,,-99.99,WeatherLink 5.4,2013-01-28 21:00:00,
2013-01-28 16:30:00,50.1,37.2,30.29,SW,225,0.0,5.0,61,0.00,,,-99.99,WeatherLink 5.4,2013-01-28 21:30:00,
2013-01-28 17:00:00,49.6,38.7,30.29,SW,225,0.0,4.0,66,0.00,,,-99.99,WeatherLink 5.4,2013-01-28 22:00:00,
2013-01-28 17:30:00,49.2,39.1,30.29,North,-999,0.0,0.0,68,0.00,,,-99.99,WeatherLink 5.4,2013-01-28 22:30:00,
2013-01-28 18:00:00,49.2,39.5,30.30,SSW,202,0.0,3.0,69,0.00,,,-99.99,WeatherLink 5.4,2013-01-28 23:00:00,
2013-01-28 18:30:00,49.1,39.4,30.29,SW,225,0.0,3.0,69,0.00,,,-99.99,WeatherLink 5.4,2013-01-28 23:30:00,
2013-01-28 19:00:00,49.2,40.6,30.30,SW,225,0.0,2.0,72,0.00,,,-99.99,WeatherLink 5.4,2013-01-29 00:00:00,
2013-01-28 19:30:00,49.4,41.1,30.30,SSW,202,0.0,4.0,73,0.00,,,-99.99,WeatherLink 5.4,2013-01-29 00:30:00,
2013-01-28 20:00:00,49.4,41.5,30.28,South,180,0.0,3.0,74,0.00,,,-99.99,WeatherLink 5.4,2013-01-29 01:00:00,
2013-01-28 20:30:00,49.8,43.5,30.27,SSE,157,0.0,5.0,79,0.00,,,-99.99,WeatherLink 5.4,2013-01-29 01:30:00,
2013-01-28 21:00:00,50.1,44.2,30.27,West,270,0.0,2.0,80,0.00,,,-99.99,WeatherLink 5.4,2013-01-29 02:00:00,
2013-01-28 21:30:00,50.2,44.9,30.26,SW,225,0.0,5.0,82,0.00,,,-99.99,WeatherLink 5.4,2013-01-29 02:30:00,
2013-01-28 22:00:00,50.4,45.4,30.26,WNW,292,0.0,6.0,83,0.00,,,-99.99,WeatherLink 5.4,2013-01-29 03:00:00,
2013-01-28 22:30:00,50.4,45.7,30.25,West,270,1.0,7.0,84,0.00,,,-99.99,WeatherLink 5.4,2013-01-29 03:30:00,
2013-01-28 23:00:00,50.2,45.9,30.25,WNW,292,0.0,5.0,85,0.00,,,-99.99,WeatherLink 5.4,2013-01-29 04:00:00,
2013-01-28 23:30:00,50.2,46.2,30.25,West,270,0.0,5.0,86,0.00,,,-99.99,WeatherLink 5.4,2013-01-29 04:30:00,